createdAt,value
2019-01-29T00:06:17.334Z,88.88
2019-01-29T00:08:45.755Z,89.19
2019-01-29T00:13:47.691Z,89.77
2019-01-29T00:16:16.122Z,90.45
2019-01-29T00:19:03.802Z,90.49
2019-01-29T00:21:32.222Z,90.78
2019-01-29T00:24:00.646Z,91.28
2019-01-29T00:26:29.166Z,91.63
2019-01-29T00:28:57.587Z,91.88
2019-01-29T00:31:26.163Z,91.95
2019-01-29T00:33:54.617Z,91.87
2019-01-29T00:36:23.039Z,91.67
2019-01-29T00:38:51.459Z,91.65
2019-01-29T00:41:19.930Z,91.02
2019-01-29T00:43:48.417Z,91.00
2019-01-29T00:46:16.886Z,90.60
2019-01-29T00:48:45.345Z,90.96
2019-01-29T00:51:13.767Z,90.16
2019-01-29T00:53:42.191Z,90.33
2019-01-29T00:56:10.708Z,89.78
2019-01-29T00:58:39.211Z,89.68
2019-01-29T01:01:07.971Z,90.13
2019-01-29T01:03:36.481Z,90.29
2019-01-29T01:06:05.171Z,89.96
2019-01-29T01:08:33.760Z,90.41
2019-01-29T01:11:02.623Z,90.38
2019-01-29T01:13:31.042Z,90.40
2019-01-29T01:15:59.532Z,90.54
2019-01-29T01:18:28.200Z,90.91
2019-01-29T01:20:57.324Z,90.68
2019-01-29T01:23:25.819Z,90.53
2019-01-29T01:25:54.395Z,90.43
2019-01-29T01:28:22.822Z,90.16
2019-01-29T01:30:51.238Z,90.63
2019-01-29T01:33:19.812Z,90.80
2019-01-29T01:35:48.298Z,90.76
2019-01-29T01:38:16.718Z,90.16
2019-01-29T01:40:45.162Z,89.84
2019-01-29T01:43:13.592Z,89.41
2019-01-29T01:45:42.082Z,90.24
2019-01-29T01:48:10.902Z,90.68
2019-01-29T01:50:39.328Z,90.50
2019-01-29T01:53:07.751Z,91.38
2019-01-29T01:55:36.202Z,91.90
2019-01-29T01:58:04.962Z,91.67
2019-01-29T02:00:33.457Z,91.64
2019-01-29T02:03:01.961Z,92.29
2019-01-29T02:05:30.374Z,92.43
2019-01-29T02:07:58.795Z,92.51
2019-01-29T02:10:29.186Z,92.34
2019-01-29T02:12:57.709Z,92.38
2019-01-29T02:15:26.468Z,92.12
2019-01-29T02:17:55.128Z,92.19
2019-01-29T02:20:23.681Z,92.39
2019-01-29T02:22:52.343Z,92.37
2019-01-29T02:25:20.827Z,91.82
2019-01-29T02:27:49.314Z,92.16
2019-01-29T02:30:20.077Z,91.90
2019-01-29T02:32:48.701Z,90.91
2019-01-29T02:35:17.460Z,90.82
2019-01-29T02:37:45.882Z,90.88
2019-01-29T02:40:19.630Z,91.04
2019-01-29T02:42:48.193Z,91.09
2019-01-29T02:45:17.944Z,91.01
2019-01-29T02:47:46.398Z,90.44
2019-01-29T02:50:16.763Z,90.61
2019-01-29T02:52:46.126Z,90.62
2019-01-29T02:55:15.312Z,90.90
2019-01-29T02:57:43.875Z,90.64
2019-01-29T03:00:21.275Z,91.06
2019-01-29T03:02:49.876Z,92.00
2019-01-29T03:05:19.122Z,92.36
2019-01-29T03:07:48.843Z,92.86
2019-01-29T03:10:19.868Z,92.88
2019-01-29T03:12:48.363Z,94.10
2019-01-29T03:15:19.562Z,94.39
2019-01-29T03:17:48.124Z,94.72
2019-01-29T03:20:17.283Z,95.10
2019-01-29T03:22:45.896Z,95.24
2019-01-29T03:25:14.657Z,95.72
2019-01-29T03:27:43.088Z,95.20
2019-01-29T03:30:17.391Z,96.99
2019-01-29T03:32:45.823Z,96.14
2019-01-29T03:35:14.680Z,95.43
2019-01-29T03:37:43.208Z,94.13
2019-01-29T03:40:14.630Z,93.44
2019-01-29T03:42:43.056Z,93.04
2019-01-29T03:45:15.980Z,92.44
2019-01-29T03:47:44.610Z,92.03
2019-01-29T03:50:15.867Z,92.92
2019-01-29T03:52:44.651Z,93.17
2019-01-29T03:55:13.214Z,93.80
2019-01-29T03:57:41.805Z,93.62
2019-01-29T04:00:16.106Z,93.68
2019-01-29T04:02:44.778Z,93.03
2019-01-29T04:05:13.268Z,92.92
2019-01-29T04:07:41.794Z,92.80
2019-01-29T04:10:15.584Z,93.53
2019-01-29T04:12:44.186Z,94.02
2019-01-29T04:15:14.984Z,94.05
2019-01-29T04:17:43.639Z,95.23
2019-01-29T04:20:15.305Z,95.75
2019-01-29T04:22:45.895Z,94.91
2019-01-29T04:25:15.210Z,94.52
2019-01-29T04:27:43.690Z,94.87
2019-01-29T04:30:15.102Z,94.54
2019-01-29T04:32:43.530Z,95.10
2019-01-29T04:35:12.105Z,95.24
2019-01-29T04:37:40.565Z,95.28
2019-01-29T04:40:12.029Z,94.75
2019-01-29T04:42:40.549Z,95.12
2019-01-29T04:45:11.812Z,95.16
2019-01-29T04:47:40.313Z,95.13
2019-01-29T04:50:14.526Z,95.04
2019-01-29T04:52:43.293Z,96.64
2019-01-29T04:55:14.253Z,96.52
2019-01-29T04:57:42.703Z,96.55
2019-01-29T05:00:17.177Z,96.53
2019-01-29T05:02:45.708Z,95.01
2019-01-29T05:05:14.627Z,95.36
2019-01-29T05:07:43.198Z,95.65
2019-01-29T05:10:13.862Z,96.33
2019-01-29T05:12:42.312Z,96.76
2019-01-29T05:15:16.116Z,97.05
2019-01-29T05:17:44.722Z,97.82
2019-01-29T05:20:23.097Z,96.47
2019-01-29T05:22:51.785Z,96.90
2019-01-29T05:25:20.409Z,95.84
2019-01-29T05:27:48.984Z,94.94
2019-01-29T05:30:20.658Z,95.24
2019-01-29T05:32:49.407Z,95.10
2019-01-29T05:35:18.711Z,95.72
2019-01-29T05:37:47.219Z,95.84
2019-01-29T05:40:17.997Z,95.79
2019-01-29T05:42:46.714Z,96.22
2019-01-29T05:45:17.479Z,96.51
2019-01-29T05:47:45.937Z,96.15
2019-01-29T05:50:15.428Z,96.67
2019-01-29T05:52:44.114Z,97.69
2019-01-29T05:55:14.374Z,96.49
2019-01-29T05:57:43.026Z,96.33
2019-01-29T06:00:18.191Z,95.76
2019-01-29T06:02:48.491Z,95.31
2019-01-29T06:05:17.682Z,95.16
2019-01-29T06:07:46.176Z,95.14
2019-01-29T06:10:17.429Z,95.15
2019-01-29T06:12:46.029Z,95.26
2019-01-29T06:15:20.007Z,95.67
2019-01-29T06:17:48.456Z,95.97
2019-01-29T06:20:19.317Z,95.62
2019-01-29T06:22:47.794Z,96.13
2019-01-29T06:25:16.572Z,95.29
2019-01-29T06:27:45.079Z,96.07
2019-01-29T06:30:16.043Z,95.30
2019-01-29T06:32:44.570Z,96.30
2019-01-29T06:35:15.235Z,96.80
2019-01-29T06:37:43.660Z,96.02
2019-01-29T06:40:15.285Z,97.58
2019-01-29T06:42:43.715Z,97.73
2019-01-29T06:45:14.627Z,97.39
2019-01-29T06:47:43.293Z,96.46
2019-01-29T06:50:17.299Z,96.60
2019-01-29T06:52:45.895Z,96.40
2019-01-29T06:55:17.316Z,96.33
2019-01-29T06:57:54.454Z,96.43
2019-01-29T07:00:18.555Z,95.62
2019-01-29T07:02:47.361Z,95.73
2019-01-29T07:05:15.923Z,96.02
2019-01-29T07:07:44.515Z,95.83
2019-01-29T07:10:15.806Z,96.63
2019-01-29T07:12:44.231Z,97.57
2019-01-29T07:15:17.234Z,97.67
2019-01-29T07:17:47.258Z,97.85
2019-01-29T07:20:15.920Z,98.35
2019-01-29T07:22:44.342Z,97.96
2019-01-29T07:25:13.243Z,98.06
2019-01-29T07:27:44.803Z,98.11
2019-01-29T07:30:14.963Z,98.14
2019-01-29T07:32:43.486Z,98.00
2019-01-29T07:35:11.988Z,97.34
2019-01-29T07:37:40.408Z,96.86
2019-01-29T07:40:10.629Z,95.80
2019-01-29T07:42:39.622Z,95.34
2019-01-29T07:45:13.497Z,95.21
2019-01-29T07:47:41.947Z,95.15
2019-01-29T07:50:11.502Z,95.51
2019-01-29T07:52:39.992Z,95.47
2019-01-29T07:55:10.274Z,95.23
2019-01-29T07:57:38.694Z,95.33
2019-01-29T08:00:10.161Z,95.40
2019-01-29T08:02:38.758Z,94.76
2019-01-29T08:05:10.218Z,95.66
2019-01-29T08:07:38.875Z,95.43
2019-01-29T08:10:17.819Z,95.30
2019-01-29T08:12:46.279Z,94.92
2019-01-29T08:15:22.037Z,94.73
2019-01-29T08:17:50.727Z,95.52
2019-01-29T08:20:19.486Z,95.26
2019-01-29T08:22:48.215Z,95.38
2019-01-29T08:25:16.706Z,95.38
2019-01-29T08:27:45.202Z,95.39
2019-01-29T08:30:15.591Z,95.30
2019-01-29T08:32:44.235Z,94.72
2019-01-29T08:35:16.992Z,94.68
2019-01-29T08:37:45.656Z,95.23
2019-01-29T08:40:15.517Z,94.79
2019-01-29T08:42:43.935Z,95.48
2019-01-29T08:45:14.901Z,95.37
2019-01-29T08:47:43.357Z,94.97
2019-01-29T08:50:24.004Z,94.66
2019-01-29T08:52:52.426Z,94.49
2019-01-29T08:55:21.177Z,94.10
2019-01-29T08:57:49.805Z,94.44
2019-01-29T09:00:22.990Z,94.49
2019-01-29T09:02:51.579Z,94.18
2019-01-29T09:05:20.584Z,93.61
2019-01-29T09:07:49.067Z,94.45
2019-01-29T09:10:20.543Z,94.51
2019-01-29T09:12:49.651Z,93.99
2019-01-29T09:15:22.699Z,93.63
2019-01-29T09:17:51.131Z,93.14
2019-01-29T09:20:22.012Z,92.77
2019-01-29T09:22:50.615Z,92.46
2019-01-29T09:25:22.498Z,92.52
2019-01-29T09:27:49.950Z,92.64
2019-01-29T09:30:20.314Z,92.45
2019-01-29T09:32:48.901Z,92.54
2019-01-29T09:35:17.487Z,92.17
2019-01-29T09:37:46.059Z,92.53
2019-01-29T09:40:22.018Z,92.38
2019-01-29T09:42:50.785Z,92.17
2019-01-29T09:45:20.356Z,92.01
2019-01-29T09:47:48.960Z,92.74
2019-01-29T09:50:22.679Z,92.70
2019-01-29T09:52:52.043Z,92.76
2019-01-29T09:55:29.598Z,92.32
2019-01-29T09:57:54.654Z,92.55
2019-01-29T10:00:28.559Z,92.05
2019-01-29T10:02:57.002Z,92.18
2019-01-29T10:05:25.763Z,91.95
2019-01-29T10:07:55.770Z,92.12
2019-01-29T10:10:24.455Z,91.98
2019-01-29T10:12:53.351Z,91.82
2019-01-29T10:15:24.817Z,91.50
2019-01-29T10:17:53.803Z,91.31
2019-01-29T10:20:22.460Z,91.32
2019-01-29T10:22:51.019Z,90.90
2019-01-29T10:25:20.164Z,89.98
2019-01-29T10:27:48.589Z,89.66
2019-01-29T10:30:22.456Z,89.57
2019-01-29T10:32:50.967Z,89.86
2019-01-29T10:35:21.952Z,90.14
2019-01-29T10:37:50.518Z,90.26
2019-01-29T10:40:24.607Z,89.13
2019-01-29T10:42:53.466Z,89.48
2019-01-29T10:45:22.826Z,88.82
2019-01-29T10:47:51.794Z,89.35
2019-01-29T10:50:22.894Z,89.29
2019-01-29T10:52:51.752Z,89.80
2019-01-29T10:55:20.496Z,88.44
2019-01-29T10:57:49.367Z,88.07
2019-01-29T11:00:20.719Z,88.54
2019-01-29T11:02:49.615Z,88.76
2019-01-29T11:05:19.971Z,88.88
2019-01-29T11:07:48.535Z,88.80
2019-01-29T11:10:19.016Z,88.70
2019-01-29T11:12:47.510Z,88.48
2019-01-29T11:15:18.873Z,88.43
2019-01-29T11:17:47.567Z,88.02
2019-01-29T11:20:18.371Z,87.65
2019-01-29T11:22:46.861Z,88.04
2019-01-29T11:25:18.962Z,87.49
2019-01-29T11:27:47.631Z,88.34
2019-01-29T11:30:21.906Z,87.91
2019-01-29T11:32:50.621Z,87.20
2019-01-29T11:35:19.233Z,87.08
2019-01-29T11:37:47.716Z,86.87
2019-01-29T11:40:21.789Z,86.98
2019-01-29T11:42:50.286Z,86.36
2019-01-29T11:45:24.319Z,86.07
2019-01-29T11:47:52.812Z,86.18
2019-01-29T11:50:21.303Z,86.41
2019-01-29T11:52:49.731Z,85.99
2019-01-29T11:55:18.793Z,85.58
2019-01-29T11:57:47.198Z,85.55
2019-01-29T12:00:20.462Z,85.87
2019-01-29T12:02:49.334Z,85.29
2019-01-29T12:05:18.092Z,85.20
2019-01-29T12:07:46.582Z,85.18
2019-01-29T12:10:15.408Z,84.20
2019-01-29T12:12:43.845Z,85.51
2019-01-29T12:15:17.806Z,84.75
2019-01-29T12:17:46.323Z,84.59
2019-01-29T12:20:17.083Z,84.19
2019-01-29T12:22:45.844Z,84.25
2019-01-29T12:25:14.778Z,82.69
2019-01-29T12:27:43.272Z,82.12
2019-01-29T12:30:51.637Z,82.59
2019-01-29T12:33:39.379Z,81.82
2019-01-29T12:36:27.159Z,81.37
2019-01-29T12:38:55.584Z,81.53
2019-01-29T12:41:43.356Z,81.67
2019-01-29T12:44:11.786Z,80.93
2019-01-29T12:46:40.286Z,80.35
2019-01-29T12:49:28.072Z,79.76
2019-01-29T12:55:44.791Z,78.24
2019-01-29T12:58:32.402Z,78.16
2019-01-29T13:06:09.953Z,77.26
2019-01-29T13:08:38.428Z,77.64
2019-01-29T13:11:46.777Z,76.83
2019-01-29T13:14:15.222Z,76.46
2019-01-29T13:16:43.643Z,77.08
2019-01-29T13:19:12.070Z,75.58
2019-01-29T13:22:00.098Z,76.22
2019-01-29T13:24:28.518Z,75.27
2019-01-29T13:26:56.937Z,75.28
2019-01-29T13:31:59.332Z,73.30
2019-01-29T13:34:34.678Z,74.17
2019-01-29T13:37:22.419Z,74.92
2019-01-29T13:40:10.425Z,75.32
2019-01-29T13:42:58.162Z,75.64
2019-01-29T13:51:35.120Z,75.23
2019-01-29T13:54:03.562Z,73.40
2019-01-29T13:56:38.745Z,72.46
2019-01-29T13:59:02.132Z,71.28
2019-01-29T14:01:30.590Z,69.91
2019-01-29T14:04:05.994Z,70.47
2019-01-29T14:06:29.152Z,71.17
2019-01-29T14:08:57.600Z,71.04
2019-01-29T14:11:45.283Z,71.43
2019-01-29T14:14:13.725Z,69.68
2019-01-29T14:16:42.147Z,70.33
2019-01-29T14:19:29.859Z,70.72
2019-01-29T14:21:58.282Z,70.42
2019-01-29T14:24:26.702Z,70.66
2019-01-29T14:29:29.614Z,71.26
2019-01-29T14:31:58.092Z,71.71
2019-01-29T14:37:00.828Z,69.55
2019-01-29T14:40:09.196Z,70.51
2019-01-29T14:42:37.619Z,71.14
2019-01-29T14:45:45.987Z,71.95
2019-01-29T14:48:14.410Z,72.88
2019-01-29T14:50:42.826Z,72.94
2019-01-29T14:53:30.539Z,73.18
2019-01-29T14:56:18.275Z,73.51
2019-01-29T14:59:26.657Z,72.67
2019-01-29T15:02:14.269Z,71.52
2019-01-29T15:04:42.744Z,72.26
2019-01-29T15:07:11.178Z,72.51
2019-01-29T15:09:39.599Z,72.42
2019-01-29T15:12:08.085Z,71.83
2019-01-29T15:14:36.550Z,71.97
2019-01-29T15:17:44.942Z,71.36
2019-01-29T15:20:53.296Z,71.07
2019-01-29T15:25:56.270Z,71.29
2019-01-29T15:29:04.609Z,71.47
2019-01-29T15:31:33.132Z,71.34
2019-01-29T15:34:01.556Z,70.63
2019-01-29T15:36:29.975Z,70.19
2019-01-29T15:41:38.059Z,68.54
2019-01-29T15:44:25.795Z,69.01
2019-01-29T15:49:47.034Z,68.36
2019-01-29T15:52:15.493Z,69.27
2019-01-29T15:54:43.914Z,69.17
2019-01-29T15:57:31.686Z,68.93
2019-01-29T16:00:00.199Z,69.52
2019-01-29T16:02:28.607Z,69.50
2019-01-29T16:04:57.055Z,70.56
2019-01-29T16:07:25.475Z,69.39
2019-01-29T16:09:53.961Z,69.55
2019-01-29T16:12:22.414Z,69.72
2019-01-29T16:14:50.836Z,72.34
2019-01-29T16:20:46.708Z,69.41
2019-01-29T16:23:34.462Z,69.73
2019-01-29T16:28:37.409Z,68.42
2019-01-29T16:31:25.338Z,67.70
2019-01-29T16:33:53.786Z,67.92
2019-01-29T16:36:41.743Z,68.12
2019-01-29T16:39:50.079Z,68.25
2019-01-29T16:42:18.543Z,67.84
2019-01-29T16:44:46.966Z,67.32
2019-01-29T16:47:15.399Z,67.28
2019-01-29T16:49:43.846Z,66.83
2019-01-29T16:52:31.458Z,66.18
2019-01-29T16:57:33.884Z,65.82
2019-01-29T17:00:02.335Z,64.98
2019-01-29T17:02:30.754Z,64.86
2019-01-29T17:04:59.175Z,63.75
2019-01-29T17:07:27.629Z,63.53
2019-01-29T17:10:15.372Z,63.56
2019-01-29T17:13:03.142Z,63.05
2019-01-29T17:16:11.496Z,63.59
2019-01-29T17:18:39.946Z,63.58
2019-01-29T17:21:27.686Z,63.62
2019-01-29T17:26:31.108Z,65.67
2019-01-29T17:28:59.980Z,66.34
2019-01-29T17:31:28.398Z,66.83
2019-01-29T17:33:56.838Z,67.05
2019-01-29T17:36:25.343Z,67.63
2019-01-29T17:38:53.764Z,68.00
2019-01-29T17:41:22.188Z,69.12
2019-01-29T17:46:24.603Z,71.97
2019-01-29T17:48:53.103Z,73.43
2019-01-29T17:51:21.526Z,74.36
2019-01-29T17:53:49.943Z,75.28
2019-01-29T17:58:52.378Z,77.28
2019-01-29T18:01:20.798Z,78.05
2019-01-29T18:03:49.255Z,78.99
2019-01-29T18:06:36.996Z,79.92
2019-01-29T18:09:45.700Z,81.01
2019-01-29T18:12:14.140Z,82.28
2019-01-29T18:15:01.791Z,83.66
2019-01-29T18:17:49.424Z,84.29
2019-01-29T18:20:37.292Z,85.17
2019-01-29T18:23:45.631Z,85.99
2019-01-29T18:28:48.074Z,87.01
2019-01-29T18:31:16.518Z,87.61
2019-01-29T18:34:04.210Z,87.95
2019-01-29T18:36:32.649Z,88.52
2019-01-29T18:39:20.328Z,89.18
2019-01-29T18:41:48.865Z,89.60
2019-01-29T18:47:10.517Z,90.47
2019-01-29T18:49:58.343Z,91.45
2019-01-29T18:52:26.863Z,92.17
2019-01-29T18:55:14.695Z,92.44
2019-01-29T18:58:23.086Z,92.75
2019-01-29T19:03:44.651Z,92.96
2019-01-29T19:06:53.478Z,93.04
2019-01-29T19:12:49.699Z,92.95
2019-01-29T19:18:44.306Z,92.28
2019-01-29T19:21:12.849Z,92.11
2019-01-29T19:23:41.472Z,92.15
2019-01-29T19:26:10.057Z,92.30
2019-01-29T19:28:57.862Z,92.11
2019-01-29T19:32:06.281Z,92.40
2019-01-29T19:34:54.007Z,92.48
2019-01-29T19:40:57.206Z,92.92
2019-01-29T19:46:32.621Z,93.94
2019-01-29T19:55:23.508Z,94.43
2019-01-29T20:03:45.988Z,94.86
2019-01-29T20:06:54.492Z,95.04
2019-01-29T20:09:43.183Z,95.09
2019-01-29T20:12:31.037Z,94.87
2019-01-29T20:15:18.691Z,94.80
2019-01-29T20:18:27.323Z,94.35
2019-01-29T20:21:15.109Z,94.44
2019-01-29T20:24:02.828Z,94.21
2019-01-29T20:32:33.184Z,94.27
2019-01-29T20:35:21.046Z,94.16
2019-01-29T20:37:49.649Z,94.11
2019-01-29T20:41:00.790Z,93.88
2019-01-29T20:43:48.569Z,93.84
2019-01-29T20:46:36.421Z,93.71
2019-01-29T20:52:32.390Z,93.38
2019-01-29T20:55:20.091Z,93.40
2019-01-29T20:58:28.525Z,93.16
2019-01-29T21:01:16.307Z,93.23
2019-01-29T21:06:37.769Z,93.24
2019-01-29T21:09:46.218Z,93.37
2019-01-29T21:12:33.875Z,93.43
2019-01-29T21:15:21.705Z,93.34
2019-01-29T21:18:09.482Z,93.56
2019-01-29T21:20:57.471Z,93.42
2019-01-29T21:23:49.046Z,93.37
2019-01-29T21:29:10.767Z,93.31
2019-01-29T21:31:39.329Z,93.39
2019-01-29T21:34:27.104Z,93.25
2019-01-29T21:37:15.027Z,92.99
2019-01-29T21:39:43.477Z,92.92
2019-01-29T21:42:11.887Z,92.81
2019-01-29T21:47:14.318Z,92.75
2019-01-29T21:49:42.846Z,92.75
2019-01-29T21:52:11.358Z,92.16
2019-01-29T21:54:39.854Z,92.04
2019-01-29T22:00:01.244Z,92.88
2019-01-29T22:05:03.350Z,93.16
2019-01-29T22:07:31.774Z,93.51
2019-01-29T22:10:00.303Z,93.47
2019-01-29T22:12:47.912Z,93.43
2019-01-29T22:15:56.377Z,93.47
2019-01-29T22:18:24.804Z,93.76
2019-01-29T22:20:53.230Z,93.84
2019-01-29T22:23:21.689Z,93.98
2019-01-29T22:26:09.429Z,93.92
2019-01-29T22:31:12.399Z,93.81
2019-01-29T22:33:40.847Z,93.51
2019-01-29T22:36:28.582Z,93.90
2019-01-29T22:39:16.278Z,92.95
2019-01-29T22:41:44.698Z,92.67
2019-01-29T22:44:13.119Z,92.49
2019-01-29T22:46:41.566Z,92.35
2019-01-29T22:49:09.984Z,92.00
2019-01-29T22:51:38.402Z,91.71
2019-01-29T22:54:47.081Z,91.58
2019-01-29T22:57:15.608Z,91.58
2019-01-29T22:59:43.993Z,91.75
2019-01-29T23:02:31.647Z,91.84
2019-01-29T23:05:00.306Z,91.83
2019-01-29T23:07:49.464Z,91.72
2019-01-29T23:10:57.801Z,91.81
2019-01-29T23:16:19.208Z,91.28
2019-01-29T23:19:06.926Z,91.43
2019-01-29T23:21:35.414Z,91.30
2019-01-29T23:29:32.511Z,90.51
2019-01-29T23:32:00.930Z,90.36
2019-01-29T23:34:29.422Z,90.62
2019-01-29T23:37:17.163Z,90.35
2019-01-29T23:42:19.910Z,90.85
2019-01-29T23:47:42.202Z,90.74
2019-01-29T23:50:50.572Z,90.56
2019-01-29T23:53:18.994Z,90.11
2019-01-29T23:55:47.410Z,89.37
2019-01-29T23:58:15.866Z,89.86
